Time;durP1;ratioP1;P1;durP2;ratioP2;P2;SDS_P1;SDS_P2;PMS_P1;PMS_P2;Temp;Humidity;BMP_temperature;BMP_pressure;BME280_temperature;BME280_humidity;BME280_pressure;Samples;Min_cycle;Max_cycle;Signal;HPM_P1;HPM_P2
2021/08/11 00:00:13;;;;;;;4.70;3.00;;;;;;;21.00;55.98;100282.53;1718826;82;21866;-68
2021/08/11 00:02:40;;;;;;;7.73;3.00;;;;;;;20.95;56.34;100288.16;1709858;82;21057;-67
2021/08/11 00:05:08;;;;;;;7.57;3.27;;;;;;;20.90;56.37;100295.16;1713581;82;21084;-68
2021/08/11 00:07:36;;;;;;;5.27;3.10;;;;;;;20.83;56.30;100290.27;1747396;80;21168;-70
2021/08/11 00:10:05;;;;;;;4.03;3.03;;;;;;;20.77;56.66;100285.59;1718854;81;21149;-68
2021/08/11 00:12:32;;;;;;;7.60;3.60;;;;;;;20.73;57.22;100281.15;1733202;80;21190;-68
2021/08/11 00:15:00;;;;;;;3.90;3.10;;;;;;;20.69;57.42;100277.52;1716863;81;21109;-69
2021/08/11 00:17:29;;;;;;;3.83;2.83;;;;;;;20.64;57.60;100281.23;1708080;82;21567;-68
2021/08/11 00:19:56;;;;;;;4.40;3.17;;;;;;;20.62;57.55;100282.12;1716267;81;21070;-69
2021/08/11 00:22:25;;;;;;;4.70;3.00;;;;;;;20.60;57.59;100283.03;1724457;82;21130;-68
2021/08/11 00:24:51;;;;;;;5.00;3.17;;;;;;;20.59;57.66;100286.28;1718168;82;22544;-69
2021/08/11 00:27:18;;;;;;;4.47;2.93;;;;;;;20.59;57.71;100282.78;1718154;82;21113;-70
2021/08/11 00:29:45;;;;;;;4.60;3.03;;;;;;;20.57;57.68;100281.77;1715554;82;21615;-70
2021/08/11 00:32:12;;;;;;;3.97;3.00;;;;;;;20.57;57.80;100287.76;1717300;81;21693;-70
2021/08/11 00:34:41;;;;;;;5.07;3.03;;;;;;;20.55;57.82;100278.58;1721506;82;21108;-71
2021/08/11 00:37:09;;;;;;;5.90;3.13;;;;;;;20.55;57.92;100273.72;1717452;82;21592;-70
2021/08/11 00:39:39;;;;;;;5.53;3.20;;;;;;;20.54;57.92;100274.85;1729631;82;20992;-69
2021/08/11 00:42:07;;;;;;;6.67;3.07;;;;;;;20.53;57.97;100274.06;1737594;82;21070;-69
2021/08/11 00:44:34;;;;;;;4.60;3.20;;;;;;;20.53;57.97;100274.60;1719199;82;21031;-68
2021/08/11 00:47:04;;;;;;;4.67;3.13;;;;;;;20.52;57.97;100273.02;1717141;82;21506;-68
2021/08/11 00:49:31;;;;;;;4.70;3.00;;;;;;;20.52;58.09;100266.23;1691495;81;21084;-69
2021/08/11 00:52:00;;;;;;;5.97;3.17;;;;;;;20.51;58.28;100270.09;1718459;82;21015;-69
2021/08/11 00:54:27;;;;;;;4.03;3.10;;;;;;;20.50;58.38;100268.45;1732182;82;21051;-69
2021/08/11 00:56:54;;;;;;;4.27;2.93;;;;;;;20.47;58.55;100267.21;1727808;82;21055;-70
2021/08/11 00:59:21;;;;;;;3.93;2.90;;;;;;;20.45;58.62;100265.95;1699058;82;21550;-71
2021/08/11 01:01:50;;;;;;;6.07;3.17;;;;;;;20.43;58.79;100260.83;1733058;82;21105;-70
2021/08/11 01:04:18;;;;;;;4.30;3.03;;;;;;;20.42;58.92;100263.33;1728878;82;21102;-69
2021/08/11 01:06:44;;;;;;;6.10;3.30;;;;;;;20.40;58.99;100262.88;1717518;82;21059;-69
2021/08/11 01:09:14;;;;;;;5.40;3.50;;;;;;;20.39;59.13;100262.06;1725177;82;21605;-69
2021/08/11 01:11:45;;;;;;;4.03;3.20;;;;;;;20.36;59.30;100257.29;1717787;82;21042;-70
2021/08/11 01:14:13;;;;;;;5.17;3.50;;;;;;;20.35;59.32;100260.34;1724960;82;21668;-70
2021/08/11 01:16:41;;;;;;;5.43;3.00;;;;;;;20.34;59.33;100256.05;1710770;82;21064;-70
2021/08/11 01:19:09;;;;;;;5.40;3.10;;;;;;;20.32;59.38;100255.02;1722821;81;21703;-70
2021/08/11 01:21:46;;;;;;;4.00;3.40;;;;;;;20.32;59.35;100252.87;1707115;82;21600;-69
2021/08/11 01:24:30;;;;;;;6.73;3.40;;;;;;;20.32;59.27;100256.94;1728259;82;22290;-69
2021/08/11 01:27:29;;;;;;;4.83;3.40;;;;;;;20.31;59.39;100260.21;1711204;81;21058;-70
2021/08/11 01:30:21;;;;;;;4.87;3.43;;;;;;;20.30;59.44;100254.56;1723874;82;21035;-68
2021/08/11 01:33:31;;;;;;;7.80;3.77;;;;;;;20.27;59.63;100254.41;1723278;81;21062;-69
2021/08/11 01:36:30;;;;;;;5.07;3.67;;;;;;;20.26;59.96;100259.60;1709795;82;21061;-69
2021/08/11 01:39:08;;;;;;;5.63;3.43;;;;;;;20.23;60.26;100250.77;1722269;81;21526;-69
2021/08/11 01:41:42;;;;;;;5.00;3.70;;;;;;;20.18;60.38;100251.77;1710465;82;21030;-71
2021/08/11 01:44:09;;;;;;;5.30;3.73;;;;;;;20.17;60.60;100249.37;1720123;82;21074;-70
2021/08/11 01:46:41;;;;;;;5.17;3.57;;;;;;;20.13;60.72;100245.16;1744892;80;21114;-70
2021/08/11 01:49:11;;;;;;;6.35;4.10;;;;;;;20.11;60.95;100247.42;1702910;83;21118;-69
2021/08/11 01:51:41;;;;;;;5.93;3.97;;;;;;;20.08;60.99;100247.52;1680402;83;21550;-69
2021/08/11 01:54:09;;;;;;;;;;;;;;;20.06;61.23;100249.75;1733700;80;21609;-71
2021/08/11 01:56:38;;;;;;;6.90;4.30;;;;;;;20.02;61.38;100254.25;1731263;81;20167;-71
2021/08/11 01:59:05;;;;;;;5.13;3.83;;;;;;;19.98;61.74;100255.24;1730079;81;21094;-70
2021/08/11 02:01:32;;;;;;;5.53;4.23;;;;;;;19.95;62.04;100254.53;1709208;82;21060;-70
2021/08/11 02:03:59;;;;;;;4.97;3.80;;;;;;;19.92;62.28;100257.33;1761705;80;21119;-70
2021/08/11 02:06:28;;;;;;;4.80;3.73;;;;;;;19.89;62.46;100256.63;1751377;80;21542;-69
2021/08/11 02:08:57;;;;;;;5.10;3.77;;;;;;;19.86;62.61;100267.56;1741492;80;21604;-69
2021/08/11 02:11:25;;;;;;;4.93;3.80;;;;;;;19.82;62.75;100263.13;1733689;81;21078;-69
2021/08/11 02:13:52;;;;;;;5.10;4.17;;;;;;;19.79;62.80;100269.98;1723803;82;21086;-69
2021/08/11 02:16:20;;;;;;;7.97;4.13;;;;;;;19.77;62.97;100273.56;1729424;81;21145;-70
2021/08/11 02:18:47;;;;;;;7.40;4.50;;;;;;;19.76;63.19;100268.48;1721064;82;21011;-69
2021/08/11 02:21:15;;;;;;;7.07;4.00;;;;;;;19.75;63.32;100273.68;1728317;81;21047;-70
2021/08/11 02:23:42;;;;;;;5.30;3.80;;;;;;;19.74;63.50;100272.07;1726520;81;21067;-70
2021/08/11 02:26:31;;;;;;;6.03;3.80;;;;;;;19.72;63.73;100277.04;1718691;83;21142;-69
2021/08/11 02:29:17;;;;;;;5.93;4.30;;;;;;;19.69;63.98;100281.19;1721057;82;21197;-69
2021/08/11 02:31:55;;;;;;;6.27;4.00;;;;;;;19.67;64.25;100285.56;1726197;81;21007;-69
2021/08/11 02:34:46;;;;;;;6.30;3.87;;;;;;;19.64;64.53;100281.35;1721989;82;21150;-68
2021/08/11 02:37:18;;;;;;;6.00;3.80;;;;;;;19.62;64.71;100287.08;1729503;81;27789;-68
2021/08/11 02:40:08;;;;;;;6.78;3.85;;;;;;;19.59;64.98;100286.94;1715373;81;21133;-68
2021/08/11 02:42:44;;;;;;;11.10;4.80;;;;;;;19.58;65.25;100291.56;1722626;81;21099;-70
2021/08/11 02:45:16;;;;;;;5.67;3.90;;;;;;;19.57;65.50;100291.87;1747697;80;21637;-70
2021/08/11 02:47:44;;;;;;;5.17;4.07;;;;;;;19.57;65.64;100291.87;1749867;80;21054;-69
2021/08/11 02:50:11;;;;;;;6.23;4.13;;;;;;;19.56;65.69;100291.08;1716334;81;21157;-69
2021/08/11 02:52:39;;;;;;;5.30;4.10;;;;;;;19.57;65.78;100298.08;1746315;80;21095;-69
2021/08/11 02:55:08;;;;;;;5.30;3.90;;;;;;;19.58;65.61;100305.67;1726530;81;21139;-71
2021/08/11 02:57:35;;;;;;;5.07;4.10;;;;;;;19.58;65.55;100290.77;1707895;82;21180;-69
2021/08/11 03:00:04;;;;;;;6.43;3.77;;;;;;;19.58;65.53;100290.77;1714029;82;21043;-70
2021/08/11 03:02:31;;;;;;;7.37;4.20;;;;;;;19.57;65.67;100287.24;1751610;80;22335;-69
2021/08/11 03:04:58;;;;;;;6.53;3.93;;;;;;;19.58;66.05;100288.06;1732381;81;21039;-69
2021/08/11 03:07:25;;;;;;;6.07;3.97;;;;;;;19.56;66.27;100288.94;1730529;81;21266;-70
2021/08/11 03:09:52;;;;;;;5.90;4.33;;;;;;;19.54;66.38;100287.09;1725927;81;21042;-69
2021/08/11 03:12:18;;;;;;;7.33;4.53;;;;;;;19.54;66.52;100292.52;1724796;82;21051;-68
2021/08/11 03:14:46;;;;;;;6.53;4.20;;;;;;;19.53;66.68;100296.35;1728981;82;21102;-69
2021/08/11 03:17:15;;;;;;;6.70;4.03;;;;;;;19.53;66.86;100299.06;1678788;82;21481;-68
2021/08/11 03:19:44;;;;;;;6.20;4.10;;;;;;;19.52;67.10;100298.83;1725129;81;21588;-68
2021/08/11 03:22:12;;;;;;;4.73;3.97;;;;;;;19.54;67.21;100297.93;1723953;82;21062;-69
2021/08/11 03:24:40;;;;;;;5.10;4.13;;;;;;;19.55;67.23;100293.56;1727828;82;21008;-69
2021/08/11 03:27:07;;;;;;;5.60;4.07;;;;;;;19.57;67.35;100297.28;1722497;81;20989;-68
2021/08/11 03:29:33;;;;;;;5.60;4.00;;;;;;;19.59;67.38;100303.98;1721944;81;21099;-68
2021/08/11 03:32:00;;;;;;;5.47;4.50;;;;;;;19.60;67.49;100301.50;1721031;82;21495;-70
2021/08/11 03:34:28;;;;;;;7.07;4.10;;;;;;;19.63;67.54;100300.06;1729288;81;21094;-71
2021/08/11 03:36:56;;;;;;;7.47;4.60;;;;;;;19.65;67.66;100302.72;1718829;82;21500;-69
2021/08/11 03:39:23;;;;;;;6.20;4.20;;;;;;;19.70;67.70;100297.67;1731986;82;21008;-70
2021/08/11 03:41:50;;;;;;;5.53;3.90;;;;;;;19.74;67.45;100301.31;1721621;82;21121;-71
2021/08/11 03:44:17;;;;;;;5.87;4.17;;;;;;;19.79;67.43;100289.52;1740900;81;21054;-70
2021/08/11 03:46:45;;;;;;;8.27;4.47;;;;;;;19.85;67.51;100294.44;1726047;82;21035;-70
2021/08/11 03:49:12;;;;;;;7.10;4.30;;;;;;;19.91;67.49;100293.14;1746699;82;21393;-70
2021/08/11 03:51:41;;;;;;;6.47;4.33;;;;;;;19.96;67.39;100293.50;1741732;80;21113;-70
2021/08/11 03:54:08;;;;;;;5.70;4.50;;;;;;;20.02;67.40;100305.75;1707881;83;21079;-70
2021/08/11 03:56:35;;;;;;;6.10;3.83;;;;;;;20.07;67.08;100300.16;1703595;82;21094;-71
2021/08/11 03:59:02;;;;;;;7.37;4.43;;;;;;;20.13;67.08;100299.39;1748411;82;21173;-68
2021/08/11 04:01:30;;;;;;;6.57;4.13;;;;;;;20.18;67.08;100298.43;1730497;81;21014;-69
2021/08/11 04:03:56;;;;;;;5.30;4.47;;;;;;;20.23;66.94;100300.38;1725981;81;21071;-73
2021/08/11 04:06:22;;;;;;;5.40;4.40;;;;;;;20.27;67.02;100302.69;1728734;82;21022;-69
2021/08/11 04:08:49;;;;;;;6.70;4.57;;;;;;;20.32;66.95;100299.77;1715646;81;21876;-70
2021/08/11 04:11:16;;;;;;;6.83;4.27;;;;;;;20.34;66.98;100297.53;1724434;81;21132;-70
2021/08/11 04:13:43;;;;;;;5.70;4.10;;;;;;;20.41;67.06;100303.80;1724517;81;21583;-71
2021/08/11 04:16:11;;;;;;;5.90;3.97;;;;;;;20.46;67.18;100297.37;1721442;81;21772;-69
2021/08/11 04:18:38;;;;;;;5.63;4.33;;;;;;;20.53;66.98;100304.45;1724506;81;21700;-70
2021/08/11 04:21:04;;;;;;;6.17;4.40;;;;;;;20.58;66.64;100303.70;1724524;82;21489;-70
2021/08/11 04:23:31;;;;;;;7.80;3.87;;;;;;;20.64;66.34;100296.16;1728074;81;21146;-70
2021/08/11 04:25:58;;;;;;;7.90;4.20;;;;;;;20.68;65.91;100294.37;1730791;82;21039;-69
2021/08/11 04:28:25;;;;;;;9.33;4.67;;;;;;;20.73;65.61;100292.00;1724641;82;21105;-70
2021/08/11 04:30:53;;;;;;;5.90;4.10;;;;;;;20.75;65.67;100293.27;1721277;82;21091;-71
2021/08/11 04:33:19;;;;;;;6.87;4.30;;;;;;;20.80;65.73;100293.65;1722540;81;21090;-71
2021/08/11 04:35:46;;;;;;;4.53;4.00;;;;;;;20.83;65.74;100294.34;1718100;82;21146;-71
2021/08/11 04:38:12;;;;;;;6.47;4.30;;;;;;;20.87;65.67;100290.40;1728194;81;21158;-70
2021/08/11 04:40:38;;;;;;;5.83;4.63;;;;;;;20.91;65.70;100295.39;1722422;81;21557;-70
2021/08/11 04:43:06;;;;;;;7.00;4.20;;;;;;;20.96;65.70;100292.45;1728732;81;21039;-70
2021/08/11 04:45:35;;;;;;;6.50;4.43;;;;;;;21.02;65.86;100292.48;1724169;82;22173;-69
2021/08/11 04:48:02;;;;;;;5.53;4.47;;;;;;;21.09;65.86;100294.09;1728175;82;21106;-70
2021/08/11 04:50:28;;;;;;;7.57;4.93;;;;;;;21.14;65.74;100284.95;1720163;81;21076;-73
2021/08/11 04:52:55;;;;;;;6.97;4.63;;;;;;;21.21;65.75;100293.34;1712953;81;21558;-73
2021/08/11 04:55:21;;;;;;;8.80;4.53;;;;;;;21.27;65.92;100287.94;1723008;81;21672;-73
2021/08/11 04:57:49;;;;;;;9.30;4.83;;;;;;;21.34;65.66;100294.18;1726414;81;21989;-71
2021/08/11 05:00:17;;;;;;;9.77;4.87;;;;;;;21.38;65.74;100289.69;1718493;82;21671;-72
2021/08/11 05:02:43;;;;;;;8.43;5.00;;;;;;;21.41;65.91;100288.45;1713700;81;21074;-72
2021/08/11 05:05:10;;;;;;;7.20;4.40;;;;;;;21.50;66.08;100293.23;1724144;81;21042;-72
2021/08/11 05:07:37;;;;;;;8.00;5.07;;;;;;;21.56;65.91;100299.25;1719804;82;21748;-73
2021/08/11 05:10:06;;;;;;;8.73;5.30;;;;;;;21.58;65.69;100295.61;1721502;82;21094;-71
2021/08/11 05:12:33;;;;;;;9.40;5.00;;;;;;;21.60;65.25;100294.72;1724981;81;20989;-70
2021/08/11 05:15:00;;;;;;;8.40;5.33;;;;;;;21.61;64.87;100288.72;1720458;82;21067;-72
2021/08/11 05:17:27;;;;;;;10.30;5.07;;;;;;;21.63;64.78;100285.89;1727530;82;21102;-72
2021/08/11 05:19:53;;;;;;;7.80;4.50;;;;;;;21.65;64.73;100285.55;1719987;81;21026;-71
2021/08/11 05:22:21;;;;;;;6.97;4.67;;;;;;;21.71;64.64;100286.91;1725089;82;21220;-72
2021/08/11 05:24:49;;;;;;;8.50;4.90;;;;;;;21.73;64.49;100277.86;1723550;81;21042;-71
2021/08/11 05:27:15;;;;;;;8.30;4.90;;;;;;;21.75;64.52;100271.50;1729199;82;21070;-72
2021/08/11 05:29:42;;;;;;;8.07;4.40;;;;;;;21.79;64.78;100269.72;1723230;81;21083;-71
2021/08/11 05:32:09;;;;;;;11.10;4.90;;;;;;;21.85;64.87;100268.91;1723543;81;21058;-71
2021/08/11 05:34:36;;;;;;;7.80;4.83;;;;;;;21.91;65.18;100275.70;1723616;81;21118;-72
2021/08/11 05:37:03;;;;;;;7.47;5.00;;;;;;;21.99;65.22;100273.45;1715768;83;21014;-72
2021/08/11 05:39:30;;;;;;;8.87;5.40;;;;;;;22.08;65.11;100265.98;1727583;81;21586;-72
2021/08/11 05:41:56;;;;;;;8.63;5.50;;;;;;;22.20;65.08;100269.27;1720066;82;21102;-71
2021/08/11 05:44:23;;;;;;;9.77;5.77;;;;;;;22.33;65.23;100262.66;1721991;82;21051;-72
2021/08/11 05:46:49;;;;;;;8.60;6.13;;;;;;;22.44;64.62;100265.70;1750976;80;21133;-71
2021/08/11 05:49:15;;;;;;;7.67;5.30;;;;;;;22.56;64.39;100265.67;1747716;82;21078;-72
2021/08/11 05:51:41;;;;;;;10.13;5.77;;;;;;;22.65;63.96;100260.88;1715888;81;21071;-72
2021/08/11 05:54:08;;;;;;;11.13;5.57;;;;;;;22.76;63.98;100260.39;1737305;81;21078;-71
2021/08/11 05:56:34;;;;;;;9.90;4.80;;;;;;;22.87;63.47;100256.84;1730565;80;21237;-71
2021/08/11 05:59:01;;;;;;;9.43;5.93;;;;;;;23.03;63.25;100260.97;1725569;77;21411;-74
2021/08/11 06:01:27;;;;;;;10.47;5.90;;;;;;;23.13;62.65;100259.68;1808653;77;21585;-71
2021/08/11 06:03:55;;;;;;;9.47;5.37;;;;;;;23.21;62.36;100245.12;1815233;77;21483;-70
2021/08/11 06:06:24;;;;;;;12.70;6.13;;;;;;;23.30;62.28;100249.05;1810284;77;21033;-70
2021/08/11 06:08:50;;;;;;;8.13;5.23;;;;;;;23.36;62.09;100235.36;1817847;77;21790;-71
2021/08/11 06:11:17;;;;;;;11.63;5.50;;;;;;;23.43;61.99;100234.20;1808623;77;21138;-72
2021/08/11 06:13:44;;;;;;;10.27;5.40;;;;;;;23.55;62.08;100238.75;1818216;77;21482;-72
2021/08/11 06:16:11;;;;;;;11.13;5.40;;;;;;;23.64;61.69;100235.28;1806650;77;21194;-72
2021/08/11 06:18:37;;;;;;;6.17;4.87;;;;;;;23.71;61.26;100225.94;1814914;77;21038;-73
2021/08/11 06:21:04;;;;;;;8.17;5.20;;;;;;;23.79;61.38;100230.98;1815894;77;21655;-72
2021/08/11 06:23:31;;;;;;;8.17;5.17;;;;;;;23.83;61.34;100225.05;1819914;77;22212;-72
2021/08/11 06:25:57;;;;;;;9.10;5.53;;;;;;;23.90;61.43;100232.61;1814664;77;21597;-72
2021/08/11 06:28:24;;;;;;;8.10;5.23;;;;;;;23.98;60.72;100234.34;1815552;77;21034;-73
2021/08/11 06:30:50;;;;;;;10.90;5.43;;;;;;;24.04;60.74;100237.80;1785908;78;21140;-71
2021/08/11 06:33:17;;;;;;;6.67;4.70;;;;;;;24.15;60.66;100242.12;1814540;77;21167;-72
2021/08/11 06:35:43;;;;;;;7.47;4.60;;;;;;;24.24;60.34;100239.20;1808296;78;21468;-72
2021/08/11 06:38:10;;;;;;;7.70;4.67;;;;;;;24.30;60.47;100235.05;1811395;77;21113;-73
2021/08/11 06:40:37;;;;;;;10.30;4.57;;;;;;;24.39;60.04;100243.05;1809919;77;21076;-74
2021/08/11 06:43:04;;;;;;;7.37;4.00;;;;;;;24.47;60.18;100246.95;1815827;77;21076;-71
2021/08/11 06:45:31;;;;;;;7.43;4.27;;;;;;;24.56;59.84;100248.89;1816081;77;21149;-73
2021/08/11 06:47:57;;;;;;;6.80;4.10;;;;;;;24.68;59.70;100237.59;1823708;77;21501;-71
2021/08/11 06:50:25;;;;;;;5.33;3.80;;;;;;;24.74;58.90;100243.77;1810719;77;21043;-73
2021/08/11 06:52:52;;;;;;;9.63;3.80;;;;;;;24.82;58.31;100246.09;1810976;77;21334;-73
2021/08/11 06:55:18;;;;;;;6.60;3.73;;;;;;;24.88;57.66;100249.33;1810739;77;21034;-73
2021/08/11 06:57:50;;;;;;;8.23;3.73;;;;;;;24.90;56.83;100247.01;1807819;77;21098;-72
2021/08/11 07:00:18;;;;;;;6.63;3.83;;;;;;;24.91;56.73;100249.39;1817082;77;21154;-71
2021/08/11 07:02:45;;;;;;;5.60;3.57;;;;;;;24.95;56.71;100240.69;1776028;79;21623;-72
2021/08/11 07:05:12;;;;;;;5.90;3.30;;;;;;;25.00;56.12;100247.78;1778882;79;21081;-74
2021/08/11 07:07:39;;;;;;;6.40;3.07;;;;;;;25.02;55.76;100237.30;1738349;81;21039;-75
2021/08/11 07:10:09;;;;;;;6.60;3.53;;;;;;;25.05;56.03;100235.20;1751824;80;21041;-76
2021/08/11 07:12:37;;;;;;;4.33;3.30;;;;;;;25.15;56.00;100244.78;1771699;79;21160;-74
2021/08/11 07:15:06;;;;;;;6.10;3.30;;;;;;;25.22;55.63;100245.69;1768574;79;21038;-75
2021/08/11 07:17:32;;;;;;;5.07;3.37;;;;;;;25.30;54.41;100234.88;1760163;79;21031;-74
2021/08/11 07:20:11;;;;;;;6.13;3.53;;;;;;;25.35;54.18;100235.95;1771530;79;21046;-73
2021/08/11 07:22:38;;;;;;;7.10;3.33;;;;;;;25.43;54.10;100233.53;1766564;79;21089;-74
2021/08/11 07:25:05;;;;;;;7.53;3.20;;;;;;;25.50;53.28;100245.95;1770372;79;21492;-74
2021/08/11 07:27:31;;;;;;;6.57;3.43;;;;;;;25.51;53.32;100239.34;1766488;79;21045;-71
2021/08/11 07:29:58;;;;;;;4.97;3.07;;;;;;;25.55;53.55;100241.56;1764309;79;21569;-71
2021/08/11 07:32:24;;;;;;;4.40;2.93;;;;;;;25.60;52.07;100257.67;1767254;79;21496;-72
2021/08/11 07:34:51;;;;;;;5.30;2.97;;;;;;;25.65;51.29;100238.20;1770731;79;21078;-70
2021/08/11 07:37:18;;;;;;;6.47;3.37;;;;;;;25.69;51.06;100249.98;1761233;79;21552;-71
2021/08/11 07:39:45;;;;;;;5.70;3.47;;;;;;;25.73;50.48;100243.20;1756477;79;21018;-73
2021/08/11 07:42:12;;;;;;;4.90;3.20;;;;;;;25.76;50.34;100236.98;1756037;79;21565;-71
2021/08/11 07:44:40;;;;;;;7.97;3.30;;;;;;;25.82;50.26;100248.45;1766980;79;21058;-73
2021/08/11 07:47:07;;;;;;;6.10;3.40;;;;;;;25.86;50.69;100245.19;1762712;79;21098;-72
2021/08/11 07:49:34;;;;;;;8.53;3.50;;;;;;;25.89;50.37;100242.50;1765426;79;21592;-72
2021/08/11 07:52:02;;;;;;;4.10;3.30;;;;;;;25.96;50.10;100246.73;1746629;79;21049;-73
2021/08/11 07:54:29;;;;;;;7.03;3.40;;;;;;;26.04;49.33;100244.09;1732536;79;21073;-75
2021/08/11 07:56:56;;;;;;;5.47;3.80;;;;;;;26.10;49.07;100238.52;1761978;79;21045;-74
2021/08/11 07:59:22;;;;;;;7.40;3.53;;;;;;;26.13;48.74;100224.09;1761360;79;21045;-72
2021/08/11 08:01:49;;;;;;;6.13;3.73;;;;;;;26.14;49.19;100225.66;1763837;79;22136;-74
2021/08/11 08:04:15;;;;;;;6.63;3.30;;;;;;;26.17;49.82;100223.55;1761110;79;21072;-72
2021/08/11 08:06:42;;;;;;;5.30;3.57;;;;;;;26.21;49.88;100228.48;1763713;79;21157;-74
2021/08/11 08:09:08;;;;;;;6.73;3.80;;;;;;;26.25;49.15;100220.32;1768099;79;21117;-73
2021/08/11 08:11:35;;;;;;;6.90;3.50;;;;;;;26.29;49.68;100215.11;1752004;79;21153;-74
2021/08/11 08:14:02;;;;;;;5.80;3.20;;;;;;;26.35;49.49;100220.45;1761776;79;21517;-72
2021/08/11 08:16:29;;;;;;;4.93;3.27;;;;;;;26.41;49.14;100218.97;1761674;79;20977;-71
2021/08/11 08:18:56;;;;;;;5.53;2.97;;;;;;;26.49;49.30;100235.51;1761607;79;21056;-70
2021/08/11 08:21:22;;;;;;;4.37;2.43;;;;;;;26.54;46.73;100220.91;1763493;79;21072;-71
2021/08/11 08:23:49;;;;;;;6.30;3.13;;;;;;;26.58;45.92;100221.73;1749670;79;21679;-72
2021/08/11 08:26:16;;;;;;;3.63;2.27;;;;;;;26.65;44.66;100219.10;1764293;79;21093;-70
2021/08/11 08:28:48;;;;;;;3.60;2.20;;;;;;;26.74;43.67;100215.27;1763198;80;21044;-71
2021/08/11 08:31:11;;;;;;;4.20;2.10;;;;;;;26.79;42.65;100213.57;1762326;79;21050;-70
2021/08/11 08:33:37;;;;;;;4.97;2.10;;;;;;;26.84;42.78;100216.74;1761971;79;20962;-70
2021/08/11 08:36:05;;;;;;;4.83;2.57;;;;;;;26.90;42.18;100211.13;1768640;79;21154;-74
2021/08/11 08:38:31;;;;;;;3.97;2.43;;;;;;;26.95;40.97;100217.43;1753087;80;21068;-71
2021/08/11 08:40:58;;;;;;;4.67;2.50;;;;;;;26.96;41.26;100210.80;1762446;79;21082;-73
2021/08/11 08:43:26;;;;;;;3.37;2.23;;;;;;;26.97;40.33;100201.41;1763855;80;21102;-71
2021/08/11 08:45:53;;;;;;;2.87;2.10;;;;;;;26.97;40.80;100215.11;1762806;79;21497;-68
2021/08/11 08:48:20;;;;;;;4.53;2.30;;;;;;;26.98;40.29;100212.57;1770510;79;21077;-71
2021/08/11 08:50:49;;;;;;;5.60;2.20;;;;;;;26.99;40.75;100208.69;1762210;79;21052;-73
2021/08/11 08:53:22;;;;;;;4.33;2.37;;;;;;;27.03;40.03;100198.53;1772225;79;21608;-71
2021/08/11 08:55:52;;;;;;;5.57;2.00;;;;;;;27.07;39.15;100195.23;1745020;81;21207;-71
2021/08/11 08:58:20;;;;;;;3.30;2.47;;;;;;;27.12;39.46;100203.13;1734873;81;21074;-71
2021/08/11 09:00:47;;;;;;;3.80;2.40;;;;;;;27.18;39.65;100209.87;1775270;79;21093;-72
2021/08/11 09:03:14;;;;;;;5.17;2.30;;;;;;;27.21;38.53;100212.42;1755638;80;21768;-73
2021/08/11 09:05:42;;;;;;;4.00;2.43;;;;;;;27.21;38.96;100200.87;1702415;80;21293;-71
2021/08/11 09:08:09;;;;;;;3.93;2.40;;;;;;;27.25;39.14;100203.08;1755989;80;21117;-71
2021/08/11 09:10:39;;;;;;;3.27;2.10;;;;;;;27.30;39.13;100201.34;1757373;80;21229;-72
2021/08/11 09:13:19;;;;;;;3.63;2.53;;;;;;;27.34;38.12;100192.59;1754650;80;21102;-72
2021/08/11 09:15:49;;;;;;;3.85;2.20;;;;;;;27.39;38.32;100202.41;1752282;80;21580;-71
2021/08/11 09:18:24;;;;;;;5.27;2.60;;;;;;;27.39;38.27;100192.03;1755699;80;20999;-70
2021/08/11 09:21:03;;;;;;;4.87;2.50;;;;;;;27.39;38.39;100185.95;1751444;81;21109;-70
2021/08/11 09:23:41;;;;;;;4.90;2.62;;;;;;;27.47;37.85;100194.42;1753318;80;21065;-70
2021/08/11 09:26:11;;;;;;;4.40;2.73;;;;;;;27.53;37.46;100188.01;1756780;80;21675;-72
2021/08/11 09:28:40;;;;;;;5.28;2.40;;;;;;;27.56;37.87;100188.63;1760251;80;21863;-73
2021/08/11 09:31:26;;;;;;;5.53;2.37;;;;;;;27.60;37.90;100184.72;1756130;80;21062;-71
2021/08/11 09:33:56;;;;;;;3.60;2.37;;;;;;;27.66;37.14;100183.78;1786830;80;21042;-71
2021/08/11 09:36:22;;;;;;;4.37;2.40;;;;;;;27.63;36.60;100185.92;1758432;80;21030;-71
2021/08/11 09:39:01;;;;;;;5.97;2.60;;;;;;;27.60;36.74;100179.83;1768155;80;21038;-71
2021/08/11 09:41:28;;;;;;;7.00;3.13;;;;;;;27.65;36.74;100180.85;1755525;80;21770;-73
2021/08/11 09:44:07;;;;;;;3.93;2.83;;;;;;;27.75;38.04;100183.46;1755142;80;21680;-71
2021/08/11 09:46:34;;;;;;;4.00;2.33;;;;;;;27.79;38.24;100185.08;1739547;80;21141;-72
2021/08/11 09:49:01;;;;;;;3.43;2.33;;;;;;;27.87;37.33;100175.51;1758374;80;21194;-71
2021/08/11 09:51:28;;;;;;;4.40;2.60;;;;;;;27.98;37.38;100177.15;1756059;80;21123;-72
2021/08/11 09:53:54;;;;;;;5.60;2.50;;;;;;;28.13;37.56;100180.73;1754813;80;21117;-70
2021/08/11 09:56:25;;;;;;;4.07;2.37;;;;;;;28.24;37.69;100176.09;1752279;80;21098;-73
2021/08/11 09:59:02;;;;;;;3.63;2.73;;;;;;;28.22;36.99;100166.08;1747053;81;21503;-73
2021/08/11 10:01:29;;;;;;;5.30;2.70;;;;;;;28.14;36.84;100162.33;1754135;80;20993;-73
2021/08/11 10:04:03;;;;;;;6.67;3.20;;;;;;;28.02;37.72;100161.48;1767459;79;21058;-71
2021/08/11 10:06:35;;;;;;;4.93;3.00;;;;;;;28.02;38.68;100168.93;1760960;80;21108;-71
2021/08/11 10:09:25;;;;;;;5.23;3.10;;;;;;;28.12;39.26;100172.90;1771287;79;21312;-72
2021/08/11 10:11:55;;;;;;;4.13;2.90;;;;;;;28.24;39.08;100162.95;1746487;80;21160;-70
2021/08/11 10:14:24;;;;;;;5.63;2.90;;;;;;;28.32;37.39;100158.27;1758867;80;21159;-71
2021/08/11 10:16:52;;;;;;;7.97;3.00;;;;;;;28.37;37.13;100153.78;1739125;80;21495;-71
2021/08/11 10:19:22;;;;;;;4.23;2.97;;;;;;;28.41;37.15;100156.77;1758094;80;21092;-71
2021/08/11 10:21:53;;;;;;;5.77;3.10;;;;;;;28.46;38.01;100161.89;1768285;79;21052;-71
2021/08/11 10:24:21;;;;;;;5.10;2.83;;;;;;;28.52;37.02;100152.66;1740666;80;21118;-71
2021/08/11 10:26:55;;;;;;;4.67;2.53;;;;;;;28.54;38.02;100153.07;1736089;81;21039;-70
2021/08/11 10:29:23;;;;;;;4.97;2.67;;;;;;;28.58;38.56;100152.48;1775252;79;21773;-70
2021/08/11 10:31:50;;;;;;;3.57;2.60;;;;;;;28.63;37.64;100149.37;1745616;81;21499;-73
2021/08/11 10:34:18;;;;;;;4.00;2.77;;;;;;;28.69;36.60;100149.19;1754777;80;21108;-72
2021/08/11 10:36:46;;;;;;;4.60;3.03;;;;;;;28.71;36.78;100148.78;1755044;80;21045;-73
2021/08/11 10:39:14;;;;;;;4.50;2.80;;;;;;;28.69;36.25;100149.19;1773303;79;21108;-73
2021/08/11 10:41:41;;;;;;;5.80;2.60;;;;;;;28.65;36.33;100144.84;1765839;79;21087;-71
2021/08/11 10:44:21;;;;;;;3.73;2.73;;;;;;;28.67;36.27;100144.66;1756505;80;22158;-71
2021/08/11 10:47:02;;;;;;;4.10;2.80;;;;;;;28.69;36.85;100142.88;1753915;80;21554;-71
2021/08/11 10:49:29;;;;;;;3.35;2.55;;;;;;;28.73;36.25;100143.70;1758331;80;21153;-70
2021/08/11 10:52:05;;;;;;;5.17;2.70;;;;;;;28.70;35.04;100149.37;1756442;80;21097;-70
2021/08/11 10:54:55;;;;;;;3.60;2.70;;;;;;;28.70;34.64;100145.84;1761751;80;21042;-72
2021/08/11 10:57:41;;;;;;;4.30;2.80;;;;;;;28.70;34.68;100154.88;1756572;80;22242;-72
2021/08/11 11:00:23;;;;;;;4.07;2.90;;;;;;;28.70;34.98;100134.86;1757883;80;21858;-73
2021/08/11 11:02:52;;;;;;;3.30;2.53;;;;;;;28.76;34.84;100138.80;1740059;81;21104;-71
2021/08/11 11:05:27;;;;;;;5.57;2.60;;;;;;;28.79;35.12;100128.36;1751827;80;21110;-72
2021/08/11 11:08:13;;;;;;;3.87;2.40;;;;;;;28.85;35.17;100133.67;1752916;80;21075;-71
2021/08/11 11:10:43;;;;;;;4.10;2.57;;;;;;;28.89;34.95;100130.36;1749706;80;21183;-71
2021/08/11 11:13:33;;;;;;;3.22;2.35;;;;;;;28.95;34.95;100130.73;1755809;80;21098;-71
2021/08/11 11:16:03;;;;;;;3.40;2.23;;;;;;;29.01;32.92;100133.33;1755221;80;21159;-73
2021/08/11 11:18:30;;;;;;;3.30;2.30;;;;;;;29.07;32.45;100128.23;1751502;80;21607;-72
2021/08/11 11:21:02;;;;;;;3.77;2.33;;;;;;;29.09;31.98;100122.54;1760157;80;21529;-70
2021/08/11 11:23:37;;;;;;;4.27;2.57;;;;;;;29.10;33.32;100124.09;1756546;81;21490;-70
2021/08/11 11:26:10;;;;;;;4.07;2.47;;;;;;;29.12;31.14;100132.75;1757091;80;21022;-70
2021/08/11 11:29:05;;;;;;;5.73;2.40;;;;;;;29.11;30.90;100124.87;1752283;80;21399;-71
2021/08/11 11:31:45;;;;;;;3.13;2.20;;;;;;;29.10;30.27;100135.10;1764692;80;21035;-70
2021/08/11 11:34:32;;;;;;;3.97;2.50;;;;;;;29.09;31.07;100126.66;1738685;81;21074;-70